Time;durP1;ratioP1;P1;durP2;ratioP2;P2;SDS_P1;SDS_P2;PMS_P1;PMS_P2;Temp;Humidity;BMP_temperature;BMP_pressure;BME280_temperature;BME280_humidity;BME280_pressure;Samples;Min_cycle;Max_cycle;Signal;HPM_P1;HPM_P2
2022/09/02 00:00:52;;;;;;;0.00;0.00;;;;;;;21.24;50.82;101270.47;7357527;19;20010;-63
2022/09/02 00:03:19;;;;;;;0.00;0.00;;;;;;;21.20;50.73;101269.78;7358477;19;20098;-62
2022/09/02 00:05:44;;;;;;;0.08;0.08;;;;;;;21.16;50.78;101267.38;7356367;19;20013;-62
2022/09/02 00:08:11;;;;;;;0.00;0.00;;;;;;;21.14;50.95;101266.63;7355946;19;20359;-62
2022/09/02 00:10:39;;;;;;;0.00;0.00;;;;;;;21.11;51.25;101259.69;7357013;19;20026;-62
2022/09/02 00:13:07;;;;;;;0.00;0.00;;;;;;;21.09;50.79;101260.72;7354216;19;20002;-62
2022/09/02 00:15:33;;;;;;;0.00;0.00;;;;;;;20.94;51.01;101242.06;7355839;19;20047;-62
2022/09/02 00:17:59;;;;;;;0.00;0.00;;;;;;;21.01;51.47;101244.38;7355248;19;20014;-62
2022/09/02 00:20:27;;;;;;;0.00;0.00;;;;;;;21.03;51.37;101250.44;7357138;19;20025;-62
2022/09/02 00:22:52;;;;;;;0.00;0.00;;;;;;;21.01;51.48;101247.88;7356237;19;20022;-62
2022/09/02 00:25:18;;;;;;;0.00;0.00;;;;;;;21.01;51.76;101236.41;7355523;19;20700;-62
2022/09/02 00:27:43;;;;;;;0.00;0.00;;;;;;;20.98;51.78;101243.63;7355659;19;20661;-62
2022/09/02 00:30:09;;;;;;;0.00;0.00;;;;;;;20.97;51.84;101236.56;7356434;19;20015;-62
2022/09/02 00:32:34;;;;;;;0.00;0.00;;;;;;;20.96;51.76;101240.19;7354261;19;20023;-62
2022/09/02 00:35:00;;;;;;;0.00;0.00;;;;;;;20.94;51.93;101236.78;7356060;19;20017;-62
2022/09/02 00:37:26;;;;;;;0.00;0.00;;;;;;;20.91;51.99;101231.63;7354967;19;20015;-62
2022/09/02 00:39:53;;;;;;;0.00;0.00;;;;;;;20.96;52.18;101229.56;7358015;19;20418;-62
2022/09/02 00:42:20;;;;;;;0.00;0.00;;;;;;;20.95;52.24;101225.19;7354260;19;20017;-62
2022/09/02 00:44:45;;;;;;;0.05;0.05;;;;;;;20.92;51.54;101230.66;7356529;19;20014;-62
2022/09/02 00:47:11;;;;;;;0.00;0.00;;;;;;;20.92;51.76;101217.41;7351645;19;20047;-62
2022/09/02 00:49:41;;;;;;;0.00;0.00;;;;;;;20.82;51.64;101197.63;7356945;19;20193;-62
2022/09/02 00:52:13;;;;;;;0.00;0.00;;;;;;;20.92;51.63;101213.88;7360683;19;20018;-62
2022/09/02 00:54:45;;;;;;;0.00;0.00;;;;;;;20.92;51.39;101205.94;7363187;19;20036;-62
2022/09/02 00:57:18;;;;;;;0.00;0.00;;;;;;;20.90;51.86;101203.38;7361333;19;20014;-62
2022/09/02 01:00:08;;;;;;;0.00;0.00;;;;;;;20.89;51.87;101206.97;7362449;19;20037;-62
2022/09/02 01:02:36;;;;;;;0.00;0.00;;;;;;;20.78;51.98;101187.28;7361432;19;20074;-62
2022/09/02 01:05:06;;;;;;;0.00;0.00;;;;;;;20.87;52.13;101200.88;7360267;19;20035;-62
2022/09/02 01:07:35;;;;;;;0.00;0.00;;;;;;;20.86;52.33;101201.81;7362317;19;20022;-62
2022/09/02 01:10:01;;;;;;;0.00;0.00;;;;;;;20.79;52.27;101189.00;7361001;19;20018;-62
2022/09/02 01:12:29;;;;;;;0.00;0.00;;;;;;;20.85;52.21;101189.50;7363310;19;20027;-62
2022/09/02 01:14:56;;;;;;;0.00;0.00;;;;;;;20.84;52.59;101187.81;7360202;19;20014;-63
2022/09/02 01:17:24;;;;;;;0.00;0.00;;;;;;;20.83;52.94;101186.06;7361795;19;20010;-62
2022/09/02 01:19:55;;;;;;;0.00;0.00;;;;;;;20.84;52.04;101185.16;7359901;19;20019;-63
2022/09/02 01:22:24;;;;;;;0.10;0.10;;;;;;;20.84;52.55;101181.63;7361359;19;20014;-62
2022/09/02 01:24:50;;;;;;;0.00;0.00;;;;;;;20.73;53.04;101161.00;7364208;19;20020;-62
2022/09/02 01:27:19;;;;;;;0.00;0.00;;;;;;;20.69;53.18;101146.22;7362545;19;20010;-62
2022/09/02 01:29:49;;;;;;;0.10;0.10;;;;;;;20.80;53.11;101165.03;7364125;19;20011;-62
2022/09/02 01:32:14;;;;;;;0.00;0.00;;;;;;;20.81;53.28;101163.22;7364197;19;20019;-62
2022/09/02 01:34:40;;;;;;;0.00;0.00;;;;;;;20.78;53.39;101156.28;7362157;19;21151;-62
2022/09/02 01:37:06;;;;;;;0.03;0.03;;;;;;;20.79;52.87;101160.66;7363719;19;20027;-62
2022/09/02 01:39:31;;;;;;;0.00;0.00;;;;;;;20.79;53.19;101154.50;7362291;19;20010;-62
2022/09/02 01:41:57;;;;;;;0.00;0.00;;;;;;;20.77;53.30;101157.22;7364197;19;20018;-62
2022/09/02 01:44:25;;;;;;;0.00;0.00;;;;;;;20.61;53.22;101132.53;7362988;19;20752;-62
2022/09/02 01:46:51;;;;;;;0.10;0.10;;;;;;;20.75;53.62;101151.16;7363673;19;20381;-62
2022/09/02 01:49:16;;;;;;;0.00;0.00;;;;;;;20.73;52.99;101155.69;7362011;19;22323;-62
2022/09/02 01:51:42;;;;;;;0.00;0.00;;;;;;;20.71;53.46;101149.63;7362738;19;20025;-62
2022/09/02 01:54:07;;;;;;;0.00;0.00;;;;;;;20.72;53.31;101151.34;7363488;19;20003;-62
2022/09/02 01:56:33;;;;;;;0.10;0.10;;;;;;;20.71;53.31;101149.63;7361393;19;20018;-62
2022/09/02 01:58:58;;;;;;;0.00;0.00;;;;;;;20.70;53.67;101150.56;7353612;19;20003;-62
2022/09/02 02:01:24;;;;;;;0.00;0.00;;;;;;;20.69;53.13;101146.22;7365474;19;20006;-62
2022/09/02 02:03:50;;;;;;;0.00;0.00;;;;;;;20.68;52.54;101155.09;7366276;19;20019;-62
2022/09/02 02:06:16;;;;;;;0.00;0.00;;;;;;;20.67;53.29;101148.09;7367501;19;20010;-62
2022/09/02 02:08:43;;;;;;;0.00;0.00;;;;;;;20.65;53.43;101147.34;7365235;19;20010;-62
2022/09/02 02:11:08;;;;;;;0.00;0.00;;;;;;;20.57;53.29;101139.81;7365223;19;20082;-62
2022/09/02 02:13:34;;;;;;;0.00;0.00;;;;;;;20.59;53.91;101139.72;7367918;19;20010;-62
2022/09/02 02:15:59;;;;;;;0.00;0.00;;;;;;;20.58;53.33;101132.69;7367952;19;20013;-62
2022/09/02 02:18:25;;;;;;;0.10;0.10;;;;;;;20.57;53.83;101131.00;7365912;19;20002;-62
2022/09/02 02:20:50;;;;;;;0.00;0.00;;;;;;;20.56;54.18;101129.28;7366599;19;20040;-62
2022/09/02 02:23:16;;;;;;;0.00;0.00;;;;;;;20.43;54.10;101108.75;7365933;19;20033;-62
2022/09/02 02:25:42;;;;;;;0.00;0.00;;;;;;;20.40;54.21;101098.28;7364687;19;20007;-62
2022/09/02 02:28:08;;;;;;;0.00;0.00;;;;;;;20.54;53.46;101125.88;7367392;19;20032;-62
2022/09/02 02:30:33;;;;;;;0.00;0.00;;;;;;;20.47;54.28;101109.44;7364768;19;20015;-62
2022/09/02 02:32:58;;;;;;;0.00;0.00;;;;;;;20.53;53.88;101119.72;7367060;19;20013;-62
2022/09/02 02:35:24;;;;;;;0.00;0.00;;;;;;;20.53;53.88;101124.13;7362427;19;20010;-62
2022/09/02 02:37:50;;;;;;;0.00;0.00;;;;;;;20.53;54.59;101118.84;7366810;19;21881;-62
2022/09/02 02:40:19;;;;;;;0.00;0.00;;;;;;;20.52;54.45;101114.47;7364705;19;20010;-62
2022/09/02 02:42:44;;;;;;;0.00;0.00;;;;;;;20.43;54.24;101098.13;7366116;19;20011;-62
2022/09/02 02:45:11;;;;;;;0.00;0.00;;;;;;;20.48;54.12;101105.88;7362636;19;20036;-62
2022/09/02 02:47:41;;;;;;;0.00;0.00;;;;;;;20.49;54.30;101102.25;7366942;19;20021;-62
2022/09/02 02:50:10;;;;;;;0.00;0.00;;;;;;;20.49;54.67;101096.09;7361881;19;20082;-62
2022/09/02 02:52:37;;;;;;;0.00;0.00;;;;;;;20.44;54.56;101088.38;7367773;19;20025;-62
2022/09/02 02:55:04;;;;;;;;;;;;;;;20.50;52.25;101087.19;7363181;19;20023;-62
2022/09/02 02:57:29;;;;;;;0.00;0.00;;;;;;;20.43;54.73;101086.66;7366255;19;19927;-62
2022/09/02 02:59:56;;;;;;;0.00;0.00;;;;;;;20.42;54.67;101095.53;7362969;19;20017;-63
2022/09/02 03:02:22;;;;;;;0.00;0.00;;;;;;;20.38;54.45;101089.59;7368486;19;20478;-62
2022/09/02 03:04:53;;;;;;;0.00;0.00;;;;;;;20.35;54.78;101089.75;7353357;19;20002;-62
2022/09/02 03:07:18;;;;;;;0.00;0.00;;;;;;;20.34;53.66;101088.03;7364173;19;20006;-62
2022/09/02 03:09:43;;;;;;;0.00;0.00;;;;;;;20.32;54.93;101081.94;7365095;19;20082;-62
2022/09/02 03:12:10;;;;;;;0.00;0.00;;;;;;;20.29;53.75;101084.81;7364591;19;20014;-62
2022/09/02 03:14:36;;;;;;;0.00;0.00;;;;;;;20.26;54.39;101079.66;7364737;19;20014;-62
2022/09/02 03:17:03;;;;;;;0.00;0.00;;;;;;;20.19;54.67;101067.69;7360231;19;20842;-63
2022/09/02 03:19:28;;;;;;;0.00;0.00;;;;;;;20.21;54.75;101071.09;7361556;19;20607;-63
2022/09/02 03:21:53;;;;;;;0.00;0.00;;;;;;;20.19;55.31;101073.00;7365751;19;20429;-62
2022/09/02 03:24:19;;;;;;;0.00;0.00;;;;;;;20.13;54.99;101063.59;7363201;19;20047;-63
2022/09/02 03:26:45;;;;;;;0.00;0.00;;;;;;;20.15;54.70;101066.16;7364867;19;20013;-63
2022/09/02 03:29:10;;;;;;;0.00;0.00;;;;;;;20.13;55.33;101060.09;7366372;19;20503;-62
2022/09/02 03:31:36;;;;;;;0.00;0.00;;;;;;;20.10;55.22;101063.78;7364525;19;20017;-63
2022/09/02 03:34:02;;;;;;;0.00;0.00;;;;;;;20.07;55.56;101057.78;7366940;19;20109;-62
2022/09/02 03:36:34;;;;;;;0.00;0.00;;;;;;;19.98;53.57;101039.75;7365153;19;20596;-63
2022/09/02 03:39:01;;;;;;;0.00;0.00;;;;;;;20.03;55.22;101049.16;7364996;19;20500;-62
2022/09/02 03:41:26;;;;;;;0.00;0.00;;;;;;;19.87;55.19;101019.13;7362564;19;20123;-62
2022/09/02 03:43:52;;;;;;;0.00;0.00;;;;;;;19.96;54.80;101040.69;7367173;19;20400;-62
2022/09/02 03:46:17;;;;;;;0.00;0.00;;;;;;;19.94;55.19;101031.13;7364489;19;20026;-62
2022/09/02 03:48:43;;;;;;;0.00;0.00;;;;;;;19.91;55.56;101032.13;7365486;19;20090;-63
2022/09/02 03:51:09;;;;;;;0.00;0.00;;;;;;;19.88;55.70;101029.69;7366005;19;20030;-62
2022/09/02 03:53:35;;;;;;;0.00;0.00;;;;;;;19.86;55.67;101031.53;7363804;19;20474;-62
2022/09/02 03:56:10;;;;;;;0.00;0.00;;;;;;;19.82;54.75;101021.19;7360141;19;20006;-62
2022/09/02 03:58:36;;;;;;;0.00;0.00;;;;;;;19.82;56.22;101022.06;7362775;19;20013;-62
2022/09/02 04:01:03;;;;;;;0.00;0.00;;;;;;;19.81;55.71;101025.63;7364886;19;20078;-62
2022/09/02 04:03:29;;;;;;;0.00;0.00;;;;;;;19.79;55.91;101016.94;7363930;19;20018;-62
2022/09/02 04:05:54;;;;;;;0.00;0.00;;;;;;;19.75;54.94;101014.53;7365479;19;20006;-62
2022/09/02 04:08:20;;;;;;;0.00;0.00;;;;;;;19.76;55.22;101022.41;7362604;19;20014;-62
2022/09/02 04:10:46;;;;;;;0.00;0.00;;;;;;;19.75;55.72;101027.78;7365230;19;20023;-62
2022/09/02 04:13:11;;;;;;;0.00;0.00;;;;;;;19.72;55.80;101034.13;7363096;19;20014;-62
2022/09/02 04:15:43;;;;;;;0.03;0.03;;;;;;;19.71;55.22;101024.44;7363707;19;20037;-62
2022/09/02 04:18:10;;;;;;;0.00;0.00;;;;;;;19.66;56.03;101011.44;7364316;19;20086;-62
2022/09/02 04:20:38;;;;;;;0.00;0.00;;;;;;;19.63;56.41;101016.09;7363536;19;20073;-62
2022/09/02 04:23:03;;;;;;;0.00;0.00;;;;;;;19.47;56.96;100994.84;7364630;19;20017;-62
2022/09/02 04:25:30;;;;;;;0.00;0.00;;;;;;;19.55;56.56;101008.50;7371848;19;20412;-62
2022/09/02 04:27:56;;;;;;;0.00;0.00;;;;;;;19.54;56.27;100995.38;7378803;19;20040;-62
2022/09/02 04:30:24;;;;;;;0.00;0.00;;;;;;;19.43;56.64;100988.00;7378034;19;20022;-62
2022/09/02 04:32:50;;;;;;;0.00;0.00;;;;;;;19.51;56.79;101001.66;7378490;19;20377;-62
2022/09/02 04:35:15;;;;;;;0.00;0.00;;;;;;;19.53;55.46;100999.81;7377331;19;20015;-62
2022/09/02 04:37:41;;;;;;;0.00;0.00;;;;;;;19.50;55.98;100996.47;7377316;19;20034;-62
2022/09/02 04:40:07;;;;;;;0.00;0.00;;;;;;;19.53;56.30;101004.25;7375990;19;20010;-62
2022/09/02 04:42:33;;;;;;;0.00;0.00;;;;;;;19.51;56.61;100995.53;7379151;19;20035;-62
2022/09/02 04:44:58;;;;;;;0.00;0.00;;;;;;;19.51;55.70;101000.81;7376014;19;20018;-62
2022/09/02 04:47:25;;;;;;;0.00;0.00;;;;;;;19.50;56.06;101001.75;7378068;19;20026;-62
2022/09/02 04:49:51;;;;;;;0.00;0.00;;;;;;;19.48;56.32;100996.56;7376464;19;20018;-62
2022/09/02 04:52:17;;;;;;;0.00;0.00;;;;;;;19.39;56.10;100987.31;7376997;19;20010;-62
2022/09/02 04:54:43;;;;;;;0.00;0.00;;;;;;;19.40;56.53;100994.31;7375015;19;20006;-62
2022/09/02 04:57:08;;;;;;;0.00;0.00;;;;;;;19.36;56.40;100991.91;7377621;19;20014;-62
2022/09/02 04:59:35;;;;;;;0.00;0.00;;;;;;;19.30;56.17;100993.09;7374716;19;20725;-62
2022/09/02 05:02:02;;;;;;;0.00;0.00;;;;;;;19.25;56.93;100991.66;7375792;19;20009;-62
2022/09/02 05:04:27;;;;;;;0.00;0.00;;;;;;;19.18;56.49;100986.69;7375727;19;20070;-62
2022/09/02 05:06:53;;;;;;;0.00;0.00;;;;;;;19.13;56.70;100995.81;7378370;19;20081;-62
2022/09/02 05:09:20;;;;;;;0.00;0.00;;;;;;;19.09;56.04;100994.28;7378154;19;20013;-62
2022/09/02 05:11:47;;;;;;;0.00;0.00;;;;;;;19.05;56.84;100988.28;7376776;19;20413;-62
2022/09/02 05:14:14;;;;;;;0.00;0.00;;;;;;;19.02;56.88;100979.66;7376735;19;20527;-61
2022/09/02 05:16:41;;;;;;;0.00;0.00;;;;;;;18.89;56.80;100967.06;7377660;19;20006;-62
2022/09/02 05:19:12;;;;;;;0.00;0.00;;;;;;;18.94;55.96;100980.06;7376710;19;20369;-62
2022/09/02 05:21:40;;;;;;;0.00;0.00;;;;;;;18.90;56.77;100982.00;7374969;19;20466;-62
2022/09/02 05:24:05;;;;;;;0.00;0.00;;;;;;;18.86;57.05;100975.19;7375851;19;20031;-62
2022/09/02 05:26:34;;;;;;;0.00;0.00;;;;;;;18.81;57.07;100969.28;7375890;19;20022;-62
2022/09/02 05:29:02;;;;;;;0.00;0.00;;;;;;;18.79;56.46;100972.94;7376013;19;20018;-62
2022/09/02 05:31:27;;;;;;;0.00;0.00;;;;;;;18.74;56.91;100959.94;7374409;19;20784;-62
2022/09/02 05:33:53;;;;;;;0.00;0.00;;;;;;;18.72;56.26;100959.19;7377912;19;20023;-62
2022/09/02 05:36:20;;;;;;;0.00;0.00;;;;;;;18.74;56.80;100959.09;7368299;19;20089;-62
2022/09/02 05:38:46;;;;;;;0.00;0.00;;;;;;;18.73;56.80;100960.88;7370342;19;20405;-62
2022/09/02 05:41:24;;;;;;;0.00;0.00;;;;;;;18.73;55.84;100955.59;7367196;19;20011;-62
2022/09/02 05:43:55;;;;;;;0.00;0.00;;;;;;;18.72;56.26;100964.47;7370114;19;20018;-62
2022/09/02 05:46:22;;;;;;;0.00;0.00;;;;;;;18.67;57.10;100961.19;7364775;19;20066;-62
2022/09/02 05:51:46;;;;;;;0.00;0.00;;;;;;;18.63;55.83;100975.50;7368699;19;20041;-62
2022/09/02 05:54:23;;;;;;;0.00;0.00;;;;;;;18.58;56.13;100966.94;7369607;19;20018;-62
2022/09/02 05:56:52;;;;;;;0.00;0.00;;;;;;;18.52;57.28;100959.31;7368396;19;20056;-62
2022/09/02 05:59:19;;;;;;;0.00;0.00;;;;;;;18.47;57.52;100964.00;7358237;19;20010;-62
2022/09/02 06:01:45;;;;;;;0.00;0.00;;;;;;;18.40;57.91;100953.75;7367467;19;20044;-62
2022/09/02 06:04:11;;;;;;;0.00;0.00;;;;;;;18.40;57.90;100960.81;7363836;19;20002;-65
2022/09/02 06:06:39;;;;;;;0.00;0.00;;;;;;;18.33;57.95;100947.03;7365314;19;20022;-64
2022/09/02 06:09:07;;;;;;;0.00;0.00;;;;;;;18.35;57.39;100955.78;7366121;19;20565;-63
2022/09/02 06:11:32;;;;;;;;;;;;;;;18.39;55.37;100952.00;7366807;19;20019;-61
2022/09/02 06:13:58;;;;;;;0.00;0.00;;;;;;;18.29;57.20;100942.84;7365584;19;19932;-64
2022/09/02 06:16:25;;;;;;;0.00;0.00;;;;;;;18.33;57.90;100957.63;7365770;19;20755;-62
2022/09/02 06:18:51;;;;;;;0.00;0.00;;;;;;;18.33;58.03;100952.31;7367220;19;20003;-62
2022/09/02 06:21:17;;;;;;;0.00;0.00;;;;;;;18.32;57.95;100944.47;7365488;19;20003;-64
2022/09/02 06:23:43;;;;;;;0.00;0.00;;;;;;;18.31;57.87;100946.28;7367746;19;20513;-64
2022/09/02 06:26:11;;;;;;;0.00;0.00;;;;;;;18.24;58.04;100947.50;7364522;19;20023;-63
2022/09/02 06:28:37;;;;;;;0.00;0.00;;;;;;;18.27;57.81;100935.94;7365031;19;20046;-62
2022/09/02 06:31:08;;;;;;;0.00;0.00;;;;;;;18.20;57.63;100930.13;7365316;19;20088;-63
2022/09/02 06:33:33;;;;;;;0.00;0.00;;;;;;;18.20;58.30;100935.41;7365114;19;20010;-62
2022/09/02 06:35:59;;;;;;;0.00;0.00;;;;;;;18.26;58.64;100939.50;7352249;19;20006;-64
2022/09/02 06:38:24;;;;;;;0.00;0.00;;;;;;;18.26;57.89;100939.50;7359239;19;20070;-62
2022/09/02 06:40:53;;;;;;;0.00;0.00;;;;;;;18.29;57.92;100934.06;7358092;19;20018;-64
2022/09/02 06:43:18;;;;;;;0.00;0.00;;;;;;;18.30;57.97;100941.06;7363586;19;20006;-64
2022/09/02 06:45:44;;;;;;;0.00;0.00;;;;;;;18.32;58.04;100928.63;7367005;19;20032;-64
2022/09/02 06:48:10;;;;;;;0.00;0.00;;;;;;;18.32;58.17;100934.75;7364648;19;20579;-64
2022/09/02 06:50:44;;;;;;;0.00;0.00;;;;;;;18.38;57.73;100938.88;7364253;19;20889;-64
2022/09/02 06:53:10;;;;;;;0.00;0.00;;;;;;;18.40;58.53;100937.88;7356059;19;20014;-64
2022/09/02 06:55:42;;;;;;;0.00;0.00;;;;;;;18.45;58.58;100944.69;7360186;19;20034;-63
2022/09/02 06:58:08;;;;;;;0.00;0.00;;;;;;;18.45;59.09;100949.97;7364889;19;20014;-64
2022/09/02 07:00:34;;;;;;;0.00;0.00;;;;;;;18.36;58.81;100931.03;7355832;19;20028;-64
2022/09/02 07:05:45;;;;;;;0.00;0.00;;;;;;;18.46;58.23;100930.56;7366280;19;20017;-64
2022/09/02 07:08:11;;;;;;;0.05;0.05;;;;;;;18.47;58.61;100930.47;7365432;19;20042;-64
2022/09/02 07:10:38;;;;;;;0.00;0.00;;;;;;;18.50;58.78;100921.50;7364161;19;20015;-64
2022/09/02 07:13:05;;;;;;;0.00;0.00;;;;;;;18.52;58.71;100909.94;7366313;19;20036;-63
2022/09/02 07:15:31;;;;;;;0.00;0.00;;;;;;;18.55;58.87;100911.53;7364857;19;20014;-63
2022/09/02 07:17:56;;;;;;;0.00;0.00;;;;;;;18.56;59.08;100905.34;7363932;19;20426;-63
2022/09/02 07:20:22;;;;;;;0.00;0.00;;;;;;;18.51;59.30;100886.22;7366499;19;20015;-63
2022/09/02 07:22:48;;;;;;;0.00;0.00;;;;;;;18.67;58.99;100902.97;7361505;19;20006;-63
2022/09/02 07:25:15;;;;;;;0.00;0.00;;;;;;;18.63;59.16;100886.41;7365506;19;20018;-63
2022/09/02 07:27:40;;;;;;;0.00;0.00;;;;;;;18.66;58.60;100880.13;7362672;19;20010;-63
2022/09/02 07:30:06;;;;;;;0.00;0.00;;;;;;;18.67;58.97;100876.53;7364269;19;20044;-63
2022/09/02 07:32:32;;;;;;;0.00;0.00;;;;;;;18.89;59.21;100903.56;7359762;19;20473;-63
2022/09/02 07:34:58;;;;;;;0.00;0.00;;;;;;;18.91;59.01;100895.56;7363585;19;20014;-63
2022/09/02 07:37:23;;;;;;;0.00;0.00;;;;;;;19.00;58.56;100902.13;7363810;19;20015;-63
2022/09/02 07:39:50;;;;;;;0.00;0.00;;;;;;;19.03;59.18;100896.69;7364215;19;20025;-63
2022/09/02 07:42:15;;;;;;;0.00;0.00;;;;;;;19.09;59.08;100896.34;7363474;19;20017;-63
2022/09/02 07:44:41;;;;;;;0.00;0.00;;;;;;;19.13;58.54;100889.94;7362532;19;20014;-63
2022/09/02 07:47:07;;;;;;;0.00;0.00;;;;;;;19.12;59.33;100875.00;7363279;19;20014;-63
2022/09/02 07:49:32;;;;;;;0.00;0.00;;;;;;;19.18;58.62;100877.28;7362398;19;22567;-63
2022/09/02 07:51:58;;;;;;;0.00;0.00;;;;;;;19.34;58.84;100887.88;7353436;19;20018;-63
2022/09/02 07:54:25;;;;;;;0.00;0.00;;;;;;;19.40;58.55;100885.72;7362940;19;20074;-63
2022/09/02 07:56:52;;;;;;;0.00;0.00;;;;;;;19.48;58.88;100879.16;7362813;19;20035;-63
2022/09/02 07:59:20;;;;;;;0.00;0.00;;;;;;;19.45;59.22;100864.28;7362740;19;20150;-63
2022/09/02 08:01:47;;;;;;;0.00;0.00;;;;;;;19.60;59.17;100881.97;7358695;19;20021;-63
2022/09/02 08:04:13;;;;;;;0.00;0.00;;;;;;;19.68;59.29;100876.25;7363991;19;20010;-63
2022/09/02 08:06:38;;;;;;;0.05;0.05;;;;;;;19.74;59.29;100875.91;7365092;19;20007;-63
2022/09/02 08:09:10;;;;;;;0.00;0.00;;;;;;;19.76;58.93;100857.25;7362141;19;20010;-63
2022/09/02 08:11:38;;;;;;;0.00;0.00;;;;;;;19.87;58.81;100863.66;7364640;19;20020;-63
2022/09/02 08:14:05;;;;;;;0.00;0.00;;;;;;;19.85;58.88;100852.25;7362765;19;20098;-63
2022/09/02 08:16:30;;;;;;;0.00;0.00;;;;;;;20.01;58.73;100869.91;7364717;19;20041;-63
2022/09/02 08:18:56;;;;;;;0.00;0.00;;;;;;;20.01;58.30;100846.06;7361888;19;20352;-63
2022/09/02 08:21:24;;;;;;;0.00;0.00;;;;;;;20.10;58.40;100858.75;7365062;19;20380;-63
2022/09/02 08:23:50;;;;;;;;;;;;;;;20.20;56.19;100858.13;7363574;19;20010;-63
2022/09/02 08:26:16;;;;;;;0.00;0.00;;;;;;;20.19;58.59;100852.91;7363878;19;25458;-63
2022/09/02 08:28:42;;;;;;;0.00;0.00;;;;;;;20.22;58.42;100855.38;7363115;19;20102;-63
2022/09/02 08:31:07;;;;;;;0.00;0.00;;;;;;;20.28;58.31;100859.47;7363430;19;20053;-63
2022/09/02 08:33:33;;;;;;;0.00;0.00;;;;;;;20.20;58.46;100838.72;7362249;19;20010;-63
2022/09/02 08:36:04;;;;;;;0.00;0.00;;;;;;;20.39;58.26;100852.56;7363186;19;20072;-64
2022/09/02 08:38:29;;;;;;;0.00;0.00;;;;;;;20.33;58.22;100841.47;7361236;19;20074;-63
2022/09/02 08:40:55;;;;;;;0.00;0.00;;;;;;;20.47;58.98;100858.25;7363501;19;20407;-63
2022/09/02 08:43:44;;;;;;;0.00;0.00;;;;;;;20.59;57.92;100847.88;7362474;19;20015;-63
2022/09/02 08:46:13;;;;;;;0.00;0.00;;;;;;;20.65;58.45;100856.28;7363432;19;20086;-63
2022/09/02 08:48:55;;;;;;;0.00;0.00;;;;;;;20.80;58.12;100859.78;7361570;19;20011;-63
2022/09/02 08:51:51;;;;;;;0.00;0.00;;;;;;;21.01;57.18;100851.41;7362905;19;20014;-63
2022/09/02 08:54:33;;;;;;;0.00;0.00;;;;;;;21.16;57.27;100858.38;7261501;19;2004577;-63
2022/09/02 08:56:58;;;;;;;0.00;0.00;;;;;;;21.22;57.93;100844.72;7360159;19;20011;-63
2022/09/02 08:59:26;;;;;;;0.00;0.00;;;;;;;21.50;57.45;100844.66;7359359;19;20010;-64
2022/09/02 09:02:29;;;;;;;0.00;0.00;;;;;;;21.83;56.66;100845.16;7361293;19;20424;-63
2022/09/02 09:05:12;;;;;;;0.00;0.00;;;;;;;22.07;57.05;100840.84;7258705;19;2004688;-64
2022/09/02 09:08:15;;;;;;;0.00;0.00;;;;;;;22.52;55.92;100826.16;7361668;19;20473;-64
2022/09/02 09:11:35;;;;;;;0.00;0.00;;;;;;;23.11;55.52;100835.31;7259556;19;2004348;-64
2022/09/02 09:14:06;;;;;;;0.00;0.00;;;;;;;23.41;54.82;100830.38;7262432;19;2004249;-63
2022/09/02 09:17:11;;;;;;;0.00;0.00;;;;;;;23.80;54.41;100828.41;7363135;19;20028;-64
2022/09/02 09:19:55;;;;;;;0.00;0.00;;;;;;;24.19;53.37;100818.31;7264808;19;2004325;-63
2022/09/02 09:22:27;;;;;;;0.00;0.00;;;;;;;24.41;52.63;100822.84;7368110;19;20018;-63
2022/09/02 09:24:56;;;;;;;0.05;0.05;;;;;;;24.67;52.19;100823.44;7365748;19;20466;-64
2022/09/02 09:27:22;;;;;;;0.00;0.00;;;;;;;24.84;51.10;100825.63;7365664;19;20073;-64
2022/09/02 09:29:48;;;;;;;0.00;0.00;;;;;;;25.07;51.10;100824.63;7366706;19;20011;-64
2022/09/02 09:32:48;;;;;;;0.00;0.00;;;;;;;25.48;51.48;100817.66;7366243;19;20007;-64
2022/09/02 09:35:16;;;;;;;0.00;0.00;;;;;;;25.61;49.60;100806.81;7264678;19;2004203;-64
2022/09/02 09:37:50;;;;;;;0.00;0.00;;;;;;;26.00;49.77;100807.94;7367433;19;20014;-64
2022/09/02 09:40:24;;;;;;;0.00;0.00;;;;;;;26.29;48.75;100805.41;7364653;19;20006;-64
2022/09/02 09:43:01;;;;;;;0.00;0.00;;;;;;;26.54;48.46;100800.63;7370363;19;20028;-63
2022/09/02 09:45:46;;;;;;;0.00;0.00;;;;;;;26.82;48.08;100796.34;7368141;19;20015;-63
2022/09/02 09:48:29;;;;;;;0.00;0.00;;;;;;;27.03;47.30;100790.91;7367467;19;20054;-63
2022/09/02 09:50:55;;;;;;;0.10;0.10;;;;;;;27.04;45.91;100798.78;7368181;19;20018;-64
2022/09/02 09:53:29;;;;;;;0.10;0.10;;;;;;;27.13;44.52;100806.03;7367553;19;20016;-64
2022/09/02 09:56:05;;;;;;;0.00;0.00;;;;;;;27.10;44.99;100795.56;7368036;19;20469;-63
2022/09/02 09:58:39;;;;;;;0.05;0.05;;;;;;;27.13;45.66;100795.31;7364389;19;20025;-64
2022/09/02 10:01:30;;;;;;;0.10;0.10;;;;;;;27.00;45.49;100778.59;7366632;19;20014;-63
2022/09/02 10:04:09;;;;;;;0.00;0.00;;;;;;;26.84;45.46;100765.75;7367023;19;20018;-63
2022/09/02 10:06:34;;;;;;;0.05;0.05;;;;;;;26.78;44.85;100781.53;7368878;19;20114;-63
2022/09/02 10:09:29;;;;;;;0.00;0.00;;;;;;;26.84;46.35;100772.94;7366241;19;25511;-63
2022/09/02 10:12:12;;;;;;;0.00;0.00;;;;;;;26.72;45.18;100776.72;7264368;19;2004458;-64
2022/09/02 10:14:47;;;;;;;0.00;0.00;;;;;;;26.63;45.71;100757.81;7367874;19;20045;-63
2022/09/02 10:17:39;;;;;;;0.00;0.00;;;;;;;26.71;45.16;100770.50;7367713;19;20435;-63
2022/09/02 10:20:23;;;;;;;0.00;0.00;;;;;;;26.70;46.14;100767.97;7263131;19;2004530;-63
2022/09/02 10:22:57;;;;;;;0.00;0.00;;;;;;;26.65;45.60;100771.91;7365241;19;20007;-63
2022/09/02 10:25:28;;;;;;;0.00;0.00;;;;;;;26.51;44.99;100766.94;7366082;19;20010;-63
2022/09/02 10:27:59;;;;;;;0.10;0.10;;;;;;;26.44;44.77;100759.56;7364909;19;20018;-63
2022/09/02 10:30:28;;;;;;;0.00;0.00;;;;;;;26.38;45.17;100764.47;7365025;19;20010;-63
2022/09/02 10:33:03;;;;;;;0.00;0.00;;;;;;;26.33;45.56;100749.78;7366289;19;20006;-64
2022/09/02 10:35:29;;;;;;;0.10;0.10;;;;;;;26.27;44.82;100755.69;7364668;19;20002;-63
2022/09/02 10:38:24;;;;;;;0.00;0.00;;;;;;;26.27;45.37;100756.53;7364664;19;20013;-63
2022/09/02 10:40:56;;;;;;;0.00;0.00;;;;;;;26.16;44.91;100745.91;7260981;19;2004227;-63
2022/09/02 10:43:59;;;;;;;0.00;0.00;;;;;;;26.12;45.20;100747.16;7358203;19;20658;-63
2022/09/02 10:46:29;;;;;;;0.00;0.00;;;;;;;25.87;45.45;100727.03;7261012;19;2004281;-63
2022/09/02 10:49:14;;;;;;;0.10;0.10;;;;;;;26.04;45.17;100734.44;7365290;19;20026;-63
2022/09/02 10:51:46;;;;;;;0.10;0.10;;;;;;;26.06;45.29;100729.81;7366820;19;20085;-63
2022/09/02 10:54:35;;;;;;;0.10;0.10;;;;;;;26.18;45.55;100727.03;7365113;19;20534;-63
2022/09/02 10:57:25;;;;;;;0.05;0.05;;;;;;;26.31;45.28;100730.34;7364543;19;20018;-63
2022/09/02 11:00:02;;;;;;;0.05;0.05;;;;;;;26.41;45.16;100715.16;7366075;19;20806;-64
2022/09/02 11:02:34;;;;;;;0.00;0.00;;;;;;;26.63;44.31;100708.75;7365771;19;20699;-63
2022/09/02 11:05:06;;;;;;;0.00;0.00;;;;;;;26.93;44.56;100691.72;7364301;19;20031;-63
2022/09/02 11:07:46;;;;;;;0.00;0.00;;;;;;;27.32;44.44;100683.66;7365955;19;20014;-63
2022/09/02 11:10:21;;;;;;;0.00;0.00;;;;;;;27.60;42.27;100704.22;7363678;19;20010;-63
2022/09/02 11:13:04;;;;;;;0.00;0.00;;;;;;;27.77;42.60;100699.13;7367140;19;20002;-63
2022/09/02 11:15:45;;;;;;;0.05;0.05;;;;;;;27.86;42.12;100690.22;7365083;19;20047;-63
2022/09/02 11:18:26;;;;;;;0.00;0.00;;;;;;;27.70;39.43;100672.00;7365441;19;20017;-63
2022/09/02 11:21:00;;;;;;;0.00;0.00;;;;;;;27.83;40.03;100683.31;7365755;19;20006;-63
2022/09/02 11:23:31;;;;;;;0.10;0.10;;;;;;;27.77;40.09;100683.88;7362819;19;20018;-63
2022/09/02 11:26:10;;;;;;;0.00;0.00;;;;;;;27.87;40.43;100689.22;7359797;19;20006;-63
2022/09/02 11:29:11;;;;;;;0.00;0.00;;;;;;;27.88;40.82;100685.56;7349554;19;20704;-63
2022/09/02 11:31:46;;;;;;;0.00;0.00;;;;;;;27.70;38.88;100681.91;7242487;19;2004436;-63
2022/09/02 11:34:39;;;;;;;0.00;0.00;;;;;;;27.74;41.03;100672.59;7349404;19;20024;-64
2022/09/02 11:37:08;;;;;;;0.10;0.10;;;;;;;27.71;40.07;100667.53;7261870;19;2004375;-64
2022/09/02 11:39:51;;;;;;;0.03;0.03;;;;;;;27.75;40.50;100650.97;7360003;19;20014;-63
2022/09/02 11:42:37;;;;;;;0.05;0.05;;;;;;;27.90;41.24;100656.72;7357788;19;20360;-63